Jaohar Rima — 9LU2215 — position and weather

sailwx.info

Track history (hours):
 
Tides and Currents Weather Stations Pressure Air Temp Water Temp Dewpoint Dewpoint Depression Visibility Wind Speed Wind Dir Waves Ship Positions

Jaohar Rima

Last reported at 2018-May-23 23:19 UTC. Time now 2018-May-24 23:36 UTC.
Position N 38°58' E 001°01'.

Length 99 m; draft 4.8 m.

Type: Cargo ship. MMSI: 667001412.

Date/timePositionNaut miles runAvg speedWind from/ knotsBaromVisibWave heightAir tempDewpointWater temp
2018-May-23 23:19N 38°58' E 001°01'310.1
2018-May-23 23:00N 38°55' E 001°03'510.5
2018-May-23 22:30N 38°51' E 001°07'1010.6
2018-May-23 21:36N 38°44' E 001°15'110.3
2018-May-23 21:31N 38°43' E 001°16'510.5
2018-May-23 21:00N 38°39' E 001°20'510.3
2018-May-23 20:31N 38°36' E 001°25'510.4
2018-May-23 20:01N 38°33' E 001°31'510.5
2018-May-23 19:30N 38°31' E 001°37'510.6
2018-May-23 19:01N 38°29' E 001°43'510.5
2018-May-23 18:30N 38°26' E 001°49'810.7
2018-May-23 17:44N 38°23' E 001°59'311.3
2018-May-23 17:29N 38°21' E 002°02'511.0
2018-May-23 17:00N 38°19' E 002°08'511.0
2018-May-23 16:30N 38°16' E 002°14'611.1
2018-May-23 16:00N 38°14' E 002°20'611.2
2018-May-23 15:30N 38°12' E 002°27'611.2
2018-May-23 15:00N 38°09' E 002°33'611.2
2018-May-23 14:30N 38°07' E 002°40'511.1
2018-May-23 14:01N 38°05' E 002°46'611.2
2018-May-23 13:30N 38°02' E 002°53'511.2
2018-May-23 13:01N 37°60' E 002°59'611.3
2018-May-23 12:30N 37°57' E 003°05'611.4
2018-May-23 12:00N 37°54' E 003°12'611.4
2018-May-23 11:30N 37°52' E 003°18'711.8
2018-May-23 10:53N 37°49' E 003°26'511.4
2018-May-23 10:29N 37°47' E 003°32'611.5
2018-May-23 10:00N 37°44' E 003°38'611.6
2018-May-23 09:31N 37°42' E 003°44'612.0
2018-May-23 09:00N 37°39' E 003°51'611.9
2018-May-23 08:30N 37°36' E 003°58'611.9
2018-May-23 08:00N 37°34' E 004°05'611.8
2018-May-23 07:30N 37°31' E 004°11'611.8
2018-May-23 07:00N 37°28' E 004°18'611.8
2018-May-23 06:29N 37°26' E 004°25'611.6
2018-May-23 05:57N 37°23' E 004°32'  
Track history (hours):
 
Tides and Currents Weather Stations Pressure Air Temp Water Temp Dewpoint Dewpoint Depression Visibility Wind Speed Wind Dir Waves Ship Positions

Jaohar Rima

Last reported at 2018-May-23 23:19 UTC. Time now 2018-May-24 23:36 UTC.
Position N 38°58' E 001°01'.

Length 99 m; draft 4.8 m.

Type: Cargo ship. MMSI: 667001412.

Date/timePositionNaut miles runAvg speedWind from/ knotsBaromVisibWave heightAir tempDewpointWater temp
2018-May-23 23:19N 38°58' E 001°01'310.1
2018-May-23 23:00N 38°55' E 001°03'510.5
2018-May-23 22:30N 38°51' E 001°07'1010.6
2018-May-23 21:36N 38°44' E 001°15'110.3
2018-May-23 21:31N 38°43' E 001°16'510.5
2018-May-23 21:00N 38°39' E 001°20'510.3
2018-May-23 20:31N 38°36' E 001°25'510.4
2018-May-23 20:01N 38°33' E 001°31'510.5
2018-May-23 19:30N 38°31' E 001°37'510.6
2018-May-23 19:01N 38°29' E 001°43'510.5
2018-May-23 18:30N 38°26' E 001°49'810.7
2018-May-23 17:44N 38°23' E 001°59'311.3
2018-May-23 17:29N 38°21' E 002°02'511.0
2018-May-23 17:00N 38°19' E 002°08'511.0
2018-May-23 16:30N 38°16' E 002°14'611.1
2018-May-23 16:00N 38°14' E 002°20'611.2
2018-May-23 15:30N 38°12' E 002°27'611.2
2018-May-23 15:00N 38°09' E 002°33'611.2
2018-May-23 14:30N 38°07' E 002°40'511.1
2018-May-23 14:01N 38°05' E 002°46'611.2
2018-May-23 13:30N 38°02' E 002°53'511.2
2018-May-23 13:01N 37°60' E 002°59'611.3
2018-May-23 12:30N 37°57' E 003°05'611.4
2018-May-23 12:00N 37°54' E 003°12'611.4
2018-May-23 11:30N 37°52' E 003°18'711.8
2018-May-23 10:53N 37°49' E 003°26'511.4
2018-May-23 10:29N 37°47' E 003°32'611.5
2018-May-23 10:00N 37°44' E 003°38'611.6
2018-May-23 09:31N 37°42' E 003°44'612.0
2018-May-23 09:00N 37°39' E 003°51'611.9
2018-May-23 08:30N 37°36' E 003°58'611.9
2018-May-23 08:00N 37°34' E 004°05'611.8
2018-May-23 07:30N 37°31' E 004°11'611.8
2018-May-23 07:00N 37°28' E 004°18'611.8
2018-May-23 06:29N 37°26' E 004°25'611.6
2018-May-23 05:57N 37°23' E 004°32'  

Dump ship's entire track history